GW3504 Weather Reports


time (UTC)temp
C
wind
direction
speed
KPH
gust
KPH
rain 1hr
cm
rain 24hr
cm
rain mn
cm
humidity
%
barometer
mb
20240418165524 10 25 14.5 33.8 0.03 2.79 1.57 52 1016.0
20240418165029 10 311 12.9 33.8 0.03 2.79 1.57 53 1015.9
20240418164528 10 352 19.3 37.0 0.03 2.79 1.57 53 1016.0
20240418164025 10 24 17.7 37.0 0.05 2.79 1.57 54 1016.0
20240418163525 10 352 12.9 37.0 0.05 2.79 1.57 56 1016.0
20240418163028 10 34 14.5 30.6 0.05 2.79 1.57 57 1016.0
20240418162527 10 13 14.5 30.6 0.05 2.79 1.57 57 1016.0
20240418162025 10 19 11.3 20.9 0.03 2.77 1.55 57 1015.9
20240418161526 10 285 9.7 20.9 0.05 2.77 1.55 56 1015.8
20240418161021 11 300 8.0 25.7 0.05 2.77 1.55 57 1015.7
20240418160523 11 311 12.9 25.7 0.05 2.77 1.55 57 1015.4
20240418160026 11 12 6.4 30.6 0.08 2.77 1.55 58 1015.2
20240418155521 11 304 12.9 30.6 0.10 2.77 1.55 57 1015.2
20240418155024 11 300 11.3 29.0 0.10 2.77 1.55 57 1015.1
20240418154528 11 51 6.4 19.3 0.10 2.77 1.55 57 1015.1
20240418154021 11 313 8.0 24.1 0.08 2.74 1.52 57 1015.2
20240418153520 11 41 9.7 24.1 0.10 2.74 1.52 57 1015.1
20240418153033 11 283 8.0 19.3 0.10 2.74 1.52 57 1015.1
20240418152523 11 27 8.0 19.3 0.10 2.74 1.52 57 1014.9
20240418152025 11 32 8.0 22.5 0.10 2.74 1.52 56 1014.9
20240418151526 11 358 9.7 22.5 0.08 2.72 1.47 56 1015.0
20240418151024 11 34 9.7 22.5 0.08 2.72 1.47 56 1014.8
20240418150522 11 18 9.7 22.5 0.08 2.72 1.47 56 1014.6
20240418150028 11 345 9.7 30.6 0.05 2.67 1.47 55 1014.5
20240418145521 11 32 8.0 30.6 0.03 2.64 1.45 55 1014.3
20240418145024 11 14 12.9 27.4 0.03 2.64 1.45 55 1014.1
20240418144525 11 28 11.3 27.4 0.03 2.64 1.45 54 1014.1
20240418144021 12 347 14.5 29.0 0.00 2.64 1.42 54 1013.9
20240418143523 12 41 9.7 29.0 0.00 2.64 1.42 54 1013.8
20240418143028 12 9 11.3 24.1 0.00 2.64 1.42 54 1013.9
20240418142523 12 73 9.7 33.8 0.00 2.64 1.42 54 1013.8
20240418142023 12 5 14.5 33.8 0.00 2.64 1.42 54 1013.5
20240418141531 12 349 8.0 19.3 0.00 2.64 1.42 54 1013.8
20240418141023 12 316 9.7 19.3 0.00 2.64 1.42 54 1013.7
20240418140524 12 27 11.3 22.5 0.00 2.64 1.42 54 1013.4
20240418140027 12 77 8.0 22.5 0.00 2.64 1.42 54 1013.4
20240418135524 12 338 9.7 24.1 0.00 2.64 1.42 54 1013.4
20240418135021 12 340 12.9 24.1 0.00 2.64 1.42 54 1013.3
20240418134526 12 63 6.4 22.5 0.00 2.64 1.42 54 1013.2
20240418134025 12 30 11.3 22.5 0.00 2.64 1.42 54 1013.2
20240418133521 12 11 8.0 19.3 0.00 2.64 1.42 54 1013.0
20240418133026 12 2 11.3 19.3 0.00 2.64 1.42 54 1013.0
20240418132524 12 348 6.4 22.5 0.00 2.64 1.42 54 1013.0
20240418132021 12 302 8.0 22.5 0.00 2.64 1.42 54 1012.8
20240418131536 12 1 6.4 16.1 0.00 2.64 1.42 54 1012.7
20240418131025 12 345 6.4 16.1 0.00 2.64 1.42 54 1012.6
20240418130524 12 50 8.0 16.1 0.00 2.64 1.42 53 1012.4
20240418130030 13 11 6.4 12.9 0.00 2.64 1.42 53 1012.5
20240418125524 13 30 3.2 12.9 0.03 2.64 1.42 54 1012.4
20240418125023 13 22 4.8 12.9 0.15 2.64 1.42 54 1012.3
20240418124528 13 40 6.4 12.9 0.20 2.64 1.42 54 1012.2
20240418124026 13 321 4.8 16.1 0.20 2.64 1.42 54 1012.1
20240418123527 13 341 8.0 16.1 0.23 2.64 1.42 54 1012.1
20240418123029 13 47 8.0 16.1 0.23 2.64 1.42 54 1012.1
20240418122529 13 53 6.4 12.9 0.23 2.64 1.42 54 1012.1
20240418122023 13 339 3.2 12.9 0.25 2.64 1.42 54 1012.3
20240418121532 13 70 6.4 14.5 0.36 2.64 1.42 54 1012.1
20240418121023 13 326 6.4 14.5 0.38 2.64 1.42 54 1012.2
20240418120525 13 349 1.6 8.0 0.41 2.64 1.42 54 1012.2
20240418120029 13 34 1.6 9.7 0.43 2.64 1.42 54 1011.7
20240418115525 13 338 3.2 17.7 0.38 2.59 1.37 54 1011.5
20240418115025 13 63 4.8 17.7 0.25 2.46 1.24 54 1011.1
20240418114528 13 42 8.0 19.3 0.23 2.44 1.22 54 1010.9
20240418114024 13 56 8.0 19.3 0.20 2.41 1.19 55 1011.0
20240418113525 13 354 6.4 17.7 0.20 2.41 1.19 55 1011.0
20240418113031 13 23 9.7 22.5 0.20 2.41 1.19 54 1011.3
20240418112527 13 8 6.4 27.4 0.20 2.41 1.19 56 1011.0
20240418112024 13 72 11.3 27.4 0.15 2.36 1.14 56 1011.0
20240418111551 13 293 8.0 20.9 0.05 2.26 1.04 56 1011.7
20240418111025 14 22 0.0 8.0 0.05 2.26 1.04 57 1010.1
20240418110524 14 113 1.6 11.3 0.00 2.21 0.99 58 1009.9
20240418110046 14 34 4.8 11.3 0.00 2.21 0.99 59 1010.1
20240418105526 14 33 4.8 11.3 0.00 2.21 0.99 59 1010.4
20240418105026 14 17 6.4 11.3 0.00 2.21 0.99 59 1010.2
20240418104531 14 6 3.2 11.3 0.00 2.21 0.99 59 1009.9
20240418104027 14 58 1.6 11.3 0.00 2.21 0.99 59 1009.8
20240418103524 14 51 6.4 19.3 0.00 2.21 0.99 59 1009.8
20240418103027 15 10 6.4 19.3 0.00 2.21 0.99 58 1010.2
20240418102526 15 4 8.0 16.1 0.00 2.21 0.99 57 1010.3
20240418102028 15 345 3.2 9.7 0.00 2.21 0.99 56 1010.1
20240418101530 15 1 1.6 9.7 0.00 2.21 0.99 56 1009.8
20240418101024 15 129 3.2 9.7 0.00 2.21 0.99 56 1009.4
20240418100618 15 102 3.2 8.0 0.00 2.21 0.99 57 1009.3
20240418100028 15 77 3.2 9.7 0.00 2.21 0.99 58 1009.3
20240418095526 14 115 1.6 9.7 0.00 2.21 0.99 58 1009.1
20240418095023 14 87 1.6 16.1 0.00 2.21 0.99 58 1009.3
20240418094527 14 121 4.8 16.1 0.00 2.21 0.99 58 1009.3
20240418094024 14 60 3.2 12.9 0.00 2.21 0.99 58 1009.2
20240418093525 14 22 4.8 12.9 0.00 2.21 0.99 58 1009.4
20240418093029 14 72 3.2 17.7 0.00 2.21 0.99 58 1009.4
20240418092524 14 165 4.8 17.7 0.00 2.21 0.99 58 1009.4
20240418092022 14 85 3.2 16.1 0.00 2.21 0.99 58 1009.4
20240418091530 14 53 3.2 16.1 0.00 2.21 0.99 58 1009.7
20240418091023 14 75 4.8 12.9 0.00 2.21 0.99 58 1009.9
20240418090524 14 52 4.8 12.9 0.00 2.21 0.99 57 1010.3
20240418090040 15 95 4.8 11.3 0.00 2.21 0.99 57 1010.4
20240418085525 15 87 3.2 19.3 0.00 2.21 0.99 56 1010.6
20240418085024 15 41 6.4 19.3 0.00 2.21 0.99 56 1010.6
20240418084536 15 30 6.4 12.9 0.00 2.21 0.99 55 1010.8
20240418084025 15 311 4.8 9.7 0.00 2.21 0.99 55 1010.7
20240418083524 15 58 3.2 9.7 0.00 2.21 0.99 55 1010.7
20240418083030 15 24 0.0 14.5 0.00 2.21 0.99 55 1010.5
20240418082524 15 46 3.2 16.1 0.00 2.21 0.99 54 1010.7
20240418082027 15 25 4.8 16.1 0.00 2.21 0.99 54 1010.9
20240418081527 15 46 8.0 29.0 0.00 2.21 0.99 54 1011.2
20240418081024 15 24 9.7 29.0 0.00 2.21 0.99 55 1011.1
20240418080523 14 34 4.8 24.1 0.00 2.21 0.99 55 1011.5
20240418080026 14 62 11.3 24.1 0.00 2.21 0.99 56 1011.8
20240418075527 14 307 1.6 9.7 0.00 2.21 0.99 55 1011.1
20240418075026 14 64 3.2 9.7 0.00 2.21 0.99 55 1009.3
20240418074538 14 141 1.6 14.5 0.00 2.21 0.99 55 1009.3
20240418074026 14 78 4.8 14.5 0.00 2.21 0.99 55 1009.7
20240418073525 14 75 3.2 14.5 0.00 2.21 0.99 55 1009.9
20240418073026 14 328 1.6 16.1 0.03 2.21 0.99 56 1009.9
20240418072527 14 63 6.4 16.1 0.08 2.21 0.99 56 1009.9
20240418072026 14 0 3.2 14.5 0.08 2.21 0.99 57 1010.2
20240418071531 14 47 3.2 14.5 0.15 2.21 0.99 58 1010.0
20240418071027 14 94 4.8 14.5 0.56 2.21 0.99 58 1009.8
20240418070525 14 49 3.2 12.9 0.84 2.21 0.99 58 1010.5
20240418070032 14 41 4.8 12.9 0.94 2.21 0.99 57 1010.2
20240418065523 14 34 3.2 12.9 0.94 2.21 0.99 57 1010.2
20240418065025 14 28 4.8 12.9 0.94 2.21 0.99 56 1010.4
20240418064534 14 0 4.8 11.3 0.94 2.21 0.99 57 1010.4
20240418064024 14 75 3.2 11.3 0.94 2.21 0.99 58 1010.4
20240418063524 14 336 3.2 8.0 0.94 2.21 0.99 59 1010.9
20240418063038 14 26 0.0 17.7 0.91 2.18 0.97 60 1011.2
20240418062521 14 63 1.6 17.7 0.86 2.13 0.91 61 1011.7
20240418062023 14 40 6.4 17.7 0.89 2.13 0.91 61 1011.2
20240418061537 15 110 6.4 16.1 0.79 2.03 0.81 60 1012.0
20240418061021 15 314 4.8 30.6 0.41 1.65 0.43 60 1013.1
20240418060524 16 330 6.4 30.6 0.10 1.32 0.13 58 1013.1
20240418060024 17 283 3.2 11.3 0.03 1.27 0.05 53 1013.3
20240418055525 17 329 0.0 6.4 0.18 1.27 0.05 50 1011.6
20240418055024 17 72 3.2 14.5 0.38 1.27 0.05 51 1011.2
20240418054524 17 0 4.8 14.5 0.61 1.27 0.05 51 1010.6
20240418054026 16 63 3.2 17.7 0.84 1.27 0.05 52 1010.7
20240418053523 16 102 6.4 43.5 0.99 1.27 0.05 53 1011.1
20240418053026 16 350 9.7 43.5 1.27 1.27 0.05 55 1012.1
20240418052523 15 326 12.9 33.8 1.27 1.27 0.05 58 1012.0
20240418052023 15 284 4.8 17.7 1.24 1.24 0.03 59 1011.9
20240418051528 15 91 4.8 17.7 1.24 1.24 0.03 60 1010.5
20240418051024 15 55 6.4 17.7 1.24 1.24 0.03 59 1010.4
20240418050521 15 356 4.8 12.9 1.24 1.24 0.03 60 1011.1
20240418050033 14 58 1.6 8.0 1.22 1.22 0.00 61 1011.5
20240418045520 15 54 4.8 8.0 1.07 1.07 1.07 60 1011.7
20240418045023 15 20 3.2 16.1 0.86 0.86 0.86 59 1012.2
20240418044527 16 304 1.6 16.1 0.58 0.58 0.58 55 1012.3
20240418044023 17 359 8.0 16.1 0.43 0.43 0.43 52 1011.6
20240418043525 18 275 3.2 16.1 0.23 0.23 0.23 47 1012.5
20240418043026 20 105 3.2 17.7 0.00 0.00 0.00 39 1011.6
20240418042523 20 175 4.8 22.5 0.00 0.00 0.00 37 1011.4
20240418042023 20 125 6.4 22.5 0.00 0.00 0.00 36 1011.1
20240418041527 20 129 6.4 16.1 0.00 0.00 0.00 36 1011.1
20240418041024 20 49 4.8 11.3 0.00 0.00 0.00 36 1011.3
20240418040527 20 120 3.2 11.3 0.00 0.00 0.00 37 1011.3
20240418040040 20 0 1.6 9.7 0.00 0.00 0.00 36 1011.5
20240418035523 20 81 3.2 9.7 0.00 0.00 0.00 36 1011.7
20240418035022 20 102 1.6 9.7 0.00 0.00 0.00 36 1011.6
20240418034525 20 74 3.2 6.4 0.00 0.00 0.00 36 1011.6
20240418034024 20 49 1.6 9.7 0.00 0.00 0.00 36 1011.7
20240418033524 20 99 1.6 9.7 0.00 0.00 0.00 36 1011.8
20240418033026 20 98 1.6 4.8 0.00 0.00 0.00 35 1012.1
20240418032524 20 0 1.6 6.4 0.00 0.00 0.00 35 1012.2
20240418032023 20 39 1.6 6.4 0.00 0.00 0.00 35 1012.3
20240418031527 20 70 0.0 4.8 0.00 0.00 0.00 34 1012.5
20240418031020 21 33 0.0 8.0 0.00 0.00 0.00 34 1012.5
20240418030520 21 43 1.6 9.7 0.00 0.00 0.00 32 1012.6
20240418030028 21 69 0.0 9.7 0.00 0.00 0.00 31 1012.7
20240418025524 21 126 1.6 8.0 0.00 0.00 0.00 31 1012.7
20240418025022 21 115 0.0 9.7 0.00 0.00 0.00 31 1012.7
20240418024525 21 0 1.6 9.7 0.00 0.00 0.00 31 1012.8
20240418024023 21 81 3.2 9.7 0.00 0.00 0.00 31 1012.8
20240418023520 21 104 1.6 8.0 0.00 0.00 0.00 32 1012.9
20240418023027 21 61 0.0 8.0 0.00 0.00 0.00 32 1012.9
20240418022522 21 0 1.6 8.0 0.00 0.00 0.00 31 1012.9
20240418022024 21 82 1.6 8.0 0.00 0.00 0.00 31 1013.0
20240418021531 21 0 1.6 8.0 0.00 0.00 0.00 32 1013.0
20240418021024 21 91 0.0 4.8 0.00 0.00 0.00 33 1013.0
20240418020527 21 0 0.0 4.8 0.00 0.00 0.00 33 1012.9
20240418020025 21 89 0.0 1.6 0.00 0.00 0.00 33 1012.9
20240418015524 21 0 0.0 1.6 0.00 0.00 0.00 33 1012.9
20240418015024 21 0 0.0 1.6 0.00 0.00 0.00 33 1012.9
20240418014539 21 37 0.0 1.6 0.00 0.00 0.00 32 1012.8
20240418014023 21 0 0.0 1.6 0.00 0.00 0.00 32 1012.7
20240418013526 21 0 0.0 1.6 0.00 0.00 0.00 31 1012.6
20240418013028 22 0 0.0 1.6 0.00 0.00 0.00 31 1012.5
20240418012523 22 82 0.0 1.6 0.00 0.00 0.00 31 1012.4
20240418012025 22 0 0.0 1.6 0.00 0.00 0.00 31 1012.4
20240418011527 22 0 0.0 1.6 0.00 0.00 0.00 30 1012.3
20240418011023 22 103 0.0 1.6 0.00 0.00 0.00 28 1012.3
20240418010520 23 0 0.0 1.6 0.00 0.00 0.00 28 1012.3
20240418010023 23 0 0.0 3.2 0.00 0.00 0.00 27 1012.2
20240418005523 23 0 0.0 3.2 0.00 0.00 0.00 27 1012.1
20240418005024 24 0 0.0 3.2 0.00 0.00 0.00 26 1012.1
20240418004528 24 0 0.0 4.8 0.00 0.00 0.00 25 1012.1
20240418004024 25 0 0.0 6.4 0.00 0.00 0.00 24 1012.0
20240418003523 25 102 1.6 6.4 0.00 0.00 0.00 24 1012.0
20240418003029 25 98 1.6 6.4 0.00 0.00 0.00 23 1012.0
20240418002523 25 84 3.2 9.7 0.00 0.00 0.00 23 1011.9
20240418002023 25 105 3.2 9.7 0.00 0.00 0.00 23 1012.0
20240418001527 26 117 1.6 8.0 0.00 0.00 0.00 22 1011.9
20240418001026 26 201 1.6 8.0 0.00 0.00 0.00 23 1012.0
20240418000523 26 0 1.6 9.7 0.00 0.00 0.00 22 1012.0
20240418000026 26 136 1.6 9.7 0.00 0.00 0.00 22 1012.1
20240417235528 26 219 3.2 9.7 0.00 0.00 0.00 22 1012.1
20240417235024 26 119 1.6 9.7 0.00 0.00 0.00 21 1012.1
20240417234523 26 121 0.0 11.3 0.00 0.00 0.00 22 1012.1
20240417234025 26 115 4.8 11.3 0.00 0.00 0.00 21 1012.0
20240417233523 26 97 1.6 8.0 0.00 0.00 0.00 21 1012.0
20240417233023 26 96 0.0 8.0 0.00 0.00 0.00 22 1012.2
20240417232523 26 342 3.2 8.0 0.00 0.00 0.00 22 1012.2
20240417232021 26 48 1.6 4.8 0.00 0.00 0.00 21 1012.2
20240417231530 26 100 0.0 6.4 0.00 0.00 0.00 22 1012.2
20240417231026 26 146 1.6 6.4 0.00 0.00 0.00 22 1012.2
20240417230523 26 56 1.6 4.8 0.00 0.00 0.00 22 1012.2
20240417230028 26 94 1.6 6.4 0.00 0.00 0.00 21 1012.2
20240417225525 26 210 3.2 6.4 0.00 0.00 0.00 20 1012.4
20240417225022 27 176 1.6 6.4 0.00 0.00 0.00 20 1012.3
20240417224525 26 280 1.6 6.4 0.00 0.00 0.00 21 1012.5
20240417224027 26 211 1.6 9.7 0.00 0.00 0.00 22 1012.5
20240417223523 26 101 3.2 9.7 0.00 0.00 0.00 20 1012.5
20240417223023 27 102 4.8 8.0 0.00 0.00 0.00 20 1012.6
20240417222523 27 111 0.0 8.0 0.00 0.00 0.00 20 1012.5
20240417222025 26 221 0.0 11.3 0.00 0.00 0.00 21 1012.6
20240417221526 26 293 4.8 11.3 0.00 0.00 0.00 22 1012.5
20240417221023 26 0 3.2 11.3 0.00 0.00 0.00 22 1012.5
20240417220524 26 79 1.6 11.3 0.00 0.00 0.00 20 1012.5
20240417220025 26 129 1.6 11.3 0.00 0.00 0.00 20 1012.6
20240417215522 26 195 1.6 9.7 0.00 0.00 0.00 21 1012.7
20240417215023 26 301 4.8 11.3 0.00 0.00 0.00 21 1012.7
20240417214540 26 172 1.6 11.3 0.00 0.00 0.00 21 1012.8
20240417214025 26 315 6.4 11.3 0.00 0.00 0.00 20 1012.8
20240417213529 26 224 3.2 9.7 0.00 0.00 0.00 21 1012.7
20240417213033 26 185 1.6 6.4 0.00 0.00 0.00 21 1012.6
20240417212525 25 148 1.6 9.7 0.00 0.00 0.00 21 1012.7
20240417212027 26 318 3.2 12.9 0.00 0.00 0.00 20 1012.6
20240417211528 26 217 3.2 12.9 0.00 0.00 0.00 21 1012.7
20240417211025 26 124 1.6 8.0 0.00 0.00 0.00 20 1012.7
20240417210522 26 208 4.8 9.7 0.00 0.00 0.00 19 1012.8
20240417210029 26 0 3.2 9.7 0.00 0.00 0.00 20 1012.8
20240417205525 26 213 3.2 8.0 0.00 0.00 0.00 20 1012.8
20240417205025 25 205 3.2 8.0 0.00 0.00 0.00 21 1012.9
20240417204538 25 82 3.2 8.0 0.00 0.00 0.00 20 1013.0
20240417204025 25 123 4.8 12.9 0.00 0.00 0.00 20 1013.1
20240417203525 25 273 4.8 12.9 0.00 0.00 0.00 23 1013.3
20240417203028 25 358 4.8 11.3 0.00 0.00 0.00 22 1013.3
20240417202524 25 291 3.2 11.3 0.00 0.00 0.00 22 1013.4
20240417202028 25 169 1.6 14.5 0.00 0.00 0.00 20 1013.4
20240417201533 25 249 4.8 14.5 0.00 0.00 0.00 20 1013.4
20240417201025 25 6 4.8 14.5 0.00 0.00 0.00 19 1013.5
20240417200526 25 280 4.8 9.7 0.00 0.00 0.00 22 1013.5
20240417200030 25 27 4.8 9.7 0.00 0.00 0.00 21 1013.5
20240417195527 25 252 1.6 14.5 0.00 0.00 0.00 22 1013.6
20240417195025 24 47 3.2 14.5 0.00 0.00 0.00 22 1013.7
20240417194527 24 282 4.8 17.7 0.00 0.00 0.00 21 1013.8
20240417194028 24 299 6.4 17.7 0.00 0.00 0.00 22 1013.8
20240417193529 24 358 6.4 14.5 0.00 0.00 0.00 20 1013.9
20240417193032 24 337 4.8 12.9 0.00 0.00 0.00 21 1013.9
20240417192525 24 332 3.2 12.9 0.00 0.00 0.00 23 1014.0
20240417192026 24 66 4.8 12.9 0.00 0.00 0.00 22 1014.1
20240417191528 24 210 1.6 12.9 0.00 0.00 0.00 22 1014.1
20240417191031 23 297 6.4 12.9 0.00 0.00 0.00 23 1014.1
20240417190525 23 12 3.2 12.9 0.00 0.00 0.00 22 1014.2
20240417190031 23 331 3.2 12.9 0.00 0.00 0.00 24 1014.3
20240417185525 23 26 3.2 19.3 0.00 0.00 0.00 23 1014.2
20240417185025 23 248 4.8 19.3 0.00 0.00 0.00 24 1014.3
20240417184534 23 280 3.2 19.3 0.00 0.00 0.00 25 1014.4
20240417184026 23 341 3.2 14.5 0.00 0.00 0.00 26 1014.5
20240417183526 23 283 4.8 17.7 0.00 0.00 0.00 24 1014.6
20240417183034 23 221 8.0 17.7 0.00 0.00 0.00 22 1014.5
20240417182525 22 54 3.2 14.5 0.00 0.00 0.00 24 1014.5
20240417182034 22 283 4.8 14.5 0.00 0.00 0.00 26 1014.5
20240417181529 22 307 6.4 16.1 0.00 0.00 0.00 24 1014.6
20240417181025 22 294 6.4 16.1 0.00 0.00 0.00 27 1014.7
20240417180523 22 326 3.2 12.9 0.00 0.00 0.00 26 1014.7
20240417180049 22 23 4.8 12.9 0.00 0.00 0.00 27 1014.8
20240417175526 22 273 6.4 16.1 0.00 0.00 0.00 27 1014.7
20240417175028 22 269 6.4 16.1 0.00 0.00 0.00 27 1014.9
20240417174533 22 265 1.6 24.1 0.00 0.00 0.00 29 1014.8
20240417174027 21 268 11.3 24.1 0.00 0.00 0.00 27 1015.0
20240417173526 21 236 4.8 19.3 0.00 0.00 0.00 27 1014.9
20240417173040 21 295 6.4 22.5 0.00 0.00 0.00 28 1014.9
20240417172525 21 304 4.8 24.1 0.00 0.00 0.00 28 1015.0
20240417172025 21 278 11.3 24.1 0.00 0.00 0.00 27 1015.0
20240417171530 21 266 6.4 20.9 0.00 0.00 0.00 30 1015.1
20240417171025 21 319 6.4 19.3 0.00 0.00 0.00 30 1015.0
20240417170524 21 290 8.0 19.3 0.00 0.00 0.00 28 1015.0
20240417170042 21 288 6.4 17.7 0.00 0.00 0.00 31 1014.9